Time;durP1;ratioP1;P1;durP2;ratioP2;P2;SDS_P1;SDS_P2;PMS_P1;PMS_P2;Temp;Humidity;BMP_temperature;BMP_pressure;BME280_temperature;BME280_humidity;BME280_pressure;Samples;Min_cycle;Max_cycle;Signal;HPM_P1;HPM_P2
2022/08/10 00:02:38;;;;;;;0.60;0.30;;;17.90;99.90;;;;;;6189600;23;20435;-85
2022/08/10 00:05:05;;;;;;;0.30;0.30;;;17.90;99.90;;;;;;6160921;23;20070;-86
2022/08/10 00:07:32;;;;;;;0.50;0.40;;;17.90;99.90;;;;;;6184622;23;20522;-85
2022/08/10 00:09:59;;;;;;;0.30;0.20;;;17.80;99.90;;;;;;6159110;23;20028;-86
2022/08/10 00:12:26;;;;;;;1.00;0.30;;;17.80;99.90;;;;;;6158545;23;20031;-85
2022/08/10 00:15:14;;;;;;;0.52;0.30;;;17.70;99.90;;;;;;6187036;23;20031;-86
2022/08/10 00:18:01;;;;;;;0.30;0.30;;;17.70;99.90;;;;;;6187716;23;20021;-87
2022/08/10 00:20:28;;;;;;;0.55;0.30;;;17.70;99.90;;;;;;6183077;23;20020;-87
2022/08/10 00:22:55;;;;;;;0.38;0.30;;;17.60;99.90;;;;;;6183079;23;20079;-85
2022/08/10 00:25:23;;;;;;;0.10;0.10;;;17.60;99.90;;;;;;6184110;23;20020;-86
2022/08/10 00:27:50;;;;;;;0.40;0.30;;;17.60;99.90;;;;;;6157467;23;20028;-84
2022/08/10 00:30:29;;;;;;;0.38;0.30;;;17.60;99.90;;;;;;6183424;23;20478;-84
2022/08/10 00:32:56;;;;;;;0.43;0.38;;;17.60;99.90;;;;;;6154795;23;20126;-85
2022/08/10 00:35:23;;;;;;;0.30;0.30;;;17.60;99.90;;;;;;6155575;23;20025;-87
2022/08/10 00:37:50;;;;;;;0.52;0.30;;;17.60;99.90;;;;;;6156866;23;20151;-84
2022/08/10 00:40:24;;;;;;;0.85;0.20;;;17.60;99.90;;;;;;6159189;23;20016;-86
2022/08/10 00:43:04;;;;;;;0.43;0.28;;;17.60;99.90;;;;;;6182599;23;20066;-85
2022/08/10 00:45:31;;;;;;;0.50;0.30;;;17.60;99.90;;;;;;6182638;23;20029;-84
2022/08/10 00:47:58;;;;;;;0.68;0.40;;;17.60;99.90;;;;;;6156162;23;20016;-85
2022/08/10 00:50:25;;;;;;;0.52;0.35;;;17.60;99.90;;;;;;6181680;23;20025;-85
2022/08/10 00:52:52;;;;;;;0.85;0.30;;;17.60;99.90;;;;;;6180004;23;20021;-85
2022/08/10 00:55:19;;;;;;;0.43;0.30;;;17.60;99.90;;;;;;6180815;23;20515;-85
2022/08/10 00:57:46;;;;;;;0.38;0.30;;;17.60;99.90;;;;;;6179941;23;20094;-86
2022/08/10 01:00:22;;;;;;;0.52;0.40;;;17.60;99.90;;;;;;6160304;23;20016;-87
2022/08/10 01:02:49;;;;;;;0.35;0.20;;;17.50;99.90;;;;;;6205993;23;20021;-85
2022/08/10 01:05:18;;;;;;;0.52;0.50;;;17.50;99.90;;;;;;6182069;23;20036;-85
2022/08/10 01:07:59;;;;;;;0.70;0.50;;;17.50;99.90;;;;;;6159529;23;20100;-85
2022/08/10 01:10:45;;;;;;;0.63;0.40;;;17.40;99.90;;;;;;6208354;23;20444;-84
2022/08/10 01:13:20;;;;;;;0.45;0.30;;;17.40;99.90;;;;;;6206968;23;20025;-86
2022/08/10 01:16:04;;;;;;;0.32;0.30;;;17.30;99.90;;;;;;6182179;23;20445;-85
2022/08/10 01:18:39;;;;;;;0.30;0.30;;;17.30;99.90;;;;;;6180043;23;20385;-89
2022/08/10 01:21:40;;;;;;;0.70;0.40;;;17.10;99.90;;;;;;6178612;23;20044;-85
2022/08/10 01:24:49;;;;;;;0.52;0.50;;;17.10;99.90;;;;;;6205469;23;20028;-85
2022/08/10 01:27:46;;;;;;;0.35;0.35;;;17.00;99.90;;;;;;6158592;23;20055;-85
2022/08/10 01:30:13;;;;;;;0.40;0.30;;;17.00;99.90;;;;;;6203782;23;20016;-85
2022/08/10 01:51:33;;;;;;;0.40;0.30;;;16.50;99.90;;;;;;6197686;23;20031;-87
2022/08/10 01:54:02;;;;;;;;;;;16.60;99.90;;;;;;6157773;23;20448;-86
2022/08/10 01:56:31;;;;;;;0.30;0.30;;;16.60;99.90;;;;;;6158052;23;19916;-87
2022/08/10 01:59:09;;;;;;;0.50;0.40;;;16.60;99.90;;;;;;6181655;23;20016;-89
2022/08/10 02:01:43;;;;;;;0.47;0.35;;;16.50;99.90;;;;;;6157573;23;20079;-86
2022/08/10 02:04:11;;;;;;;0.40;0.40;;;16.50;99.90;;;;;;6157180;23;20055;-87
2022/08/10 02:06:41;;;;;;;0.32;0.30;;;16.40;99.90;;;;;;6158178;23;20067;-87
2022/08/10 02:09:08;;;;;;;0.45;0.40;;;16.40;99.90;;;;;;6157732;23;20025;-86
2022/08/10 02:11:36;;;;;;;0.30;0.30;;;16.40;99.90;;;;;;6182637;23;20074;-88
2022/08/10 02:14:26;;;;;;;0.35;0.32;;;16.30;99.90;;;;;;6164860;23;20476;-89
2022/08/10 02:17:02;;;;;;;0.40;0.40;;;16.30;99.90;;;;;;6182862;23;20016;-87
2022/08/10 02:19:29;;;;;;;0.30;0.30;;;16.20;99.90;;;;;;6181894;23;20351;-86
2022/08/10 02:21:56;;;;;;;0.82;0.40;;;16.10;99.90;;;;;;6181920;23;20051;-86
2022/08/10 02:24:43;;;;;;;0.50;0.45;;;16.00;99.90;;;;;;6165804;23;20036;-87
2022/08/10 02:27:10;;;;;;;0.32;0.30;;;15.90;99.90;;;;;;6142107;23;20426;-84
2022/08/10 02:29:37;;;;;;;0.40;0.40;;;15.90;99.90;;;;;;6189913;23;20021;-86
2022/08/10 02:32:08;;;;;;;0.30;0.30;;;16.00;99.90;;;;;;6165339;23;20036;-86
2022/08/10 02:34:36;;;;;;;0.47;0.40;;;16.00;99.90;;;;;;6130590;23;20052;-89
2022/08/10 02:37:04;;;;;;;0.50;0.43;;;16.00;99.90;;;;;;6130452;23;20024;-87
2022/08/10 02:39:39;;;;;;;0.40;0.38;;;16.00;99.90;;;;;;6156213;23;20099;-88
2022/08/10 02:42:33;;;;;;;0.52;0.35;;;16.00;99.90;;;;;;6155021;23;20025;-87
2022/08/10 02:45:24;;;;;;;0.77;0.70;;;16.00;99.90;;;;;;6149301;23;20021;-86
2022/08/10 02:48:11;;;;;;;0.47;0.40;;;16.00;99.90;;;;;;6140184;23;20085;-90
2022/08/10 02:50:40;;;;;;;0.40;0.40;;;16.00;99.90;;;;;;6163750;23;20025;-83
2022/08/10 02:53:16;;;;;;;0.82;0.50;;;15.90;99.90;;;;;;6164354;23;20091;-87
2022/08/10 02:56:09;;;;;;;0.55;0.38;;;15.80;99.90;;;;;;6162054;23;20524;-88
2022/08/10 02:58:36;;;;;;;;;;;15.80;99.90;;;;;;6130044;23;20491;-88
2022/08/10 03:01:06;;;;;;;0.43;0.40;;;15.80;99.90;;;;;;6155051;23;19982;-89
2022/08/10 03:03:38;;;;;;;0.32;0.32;;;15.80;99.90;;;;;;6129264;23;20017;-85
2022/08/10 03:06:08;;;;;;;0.50;0.40;;;15.70;99.90;;;;;;6129255;23;20028;-86
2022/08/10 03:08:38;;;;;;;0.40;0.40;;;15.80;99.90;;;;;;6128340;23;20024;-85
2022/08/10 03:11:05;;;;;;;0.95;0.63;;;15.80;99.90;;;;;;6153138;23;20083;-85
2022/08/10 03:13:32;;;;;;;0.43;0.35;;;15.70;99.90;;;;;;6152313;23;20048;-86
2022/08/10 03:16:00;;;;;;;0.50;0.50;;;15.70;99.90;;;;;;6152442;23;20024;-85
2022/08/10 03:18:27;;;;;;;0.70;0.50;;;15.60;99.90;;;;;;6135113;23;20033;-86
2022/08/10 03:20:54;;;;;;;0.65;0.43;;;15.60;99.90;;;;;;6153384;23;20432;-86
2022/08/10 03:23:22;;;;;;;0.40;0.40;;;15.50;99.90;;;;;;6127585;23;20024;-88
2022/08/10 03:25:51;;;;;;;0.98;0.50;;;15.50;99.90;;;;;;6129039;23;20021;-88
2022/08/10 03:28:27;;;;;;;0.68;0.52;;;15.50;99.90;;;;;;6129420;23;20099;-84
2022/08/10 03:30:55;;;;;;;0.60;0.50;;;15.50;99.90;;;;;;6128369;23;20024;-84
2022/08/10 03:33:24;;;;;;;0.20;0.20;;;15.40;99.90;;;;;;6152832;23;20100;-84
2022/08/10 03:35:51;;;;;;;0.47;0.45;;;15.40;99.90;;;;;;6152905;23;20025;-84
2022/08/10 03:38:43;;;;;;;0.40;0.40;;;15.40;99.90;;;;;;6157737;23;20095;-84
2022/08/10 03:41:11;;;;;;;0.50;0.50;;;15.30;99.90;;;;;;6154135;23;20110;-87
2022/08/10 03:43:44;;;;;;;0.80;0.50;;;15.40;99.90;;;;;;6153730;23;20013;-84
2022/08/10 03:46:11;;;;;;;0.65;0.40;;;15.30;99.90;;;;;;6128878;23;20025;-86
2022/08/10 03:48:37;;;;;;;0.35;0.35;;;15.30;99.90;;;;;;6152811;23;20073;-84
2022/08/10 03:51:16;;;;;;;0.40;0.30;;;15.20;99.90;;;;;;6154631;23;20041;-84
2022/08/10 03:53:43;;;;;;;0.57;0.50;;;15.30;99.90;;;;;;6153111;23;20021;-84
2022/08/10 03:56:30;;;;;;;0.73;0.60;;;15.30;99.90;;;;;;6136481;23;20021;-86
2022/08/10 03:58:59;;;;;;;0.47;0.28;;;15.20;99.90;;;;;;6151950;23;20023;-87
2022/08/10 04:01:27;;;;;;;0.75;0.52;;;15.20;99.90;;;;;;6152197;23;20033;-84
2022/08/10 04:04:14;;;;;;;0.60;0.52;;;15.10;99.90;;;;;;6155867;23;20021;-85
2022/08/10 04:06:50;;;;;;;0.75;0.40;;;15.10;99.90;;;;;;6153306;23;20024;-84
2022/08/10 04:09:21;;;;;;;0.50;0.40;;;15.10;99.90;;;;;;6128945;23;20092;-85
2022/08/10 04:11:48;;;;;;;0.32;0.32;;;15.10;99.90;;;;;;6128714;23;20456;-88
2022/08/10 04:14:15;;;;;;;0.70;0.50;;;15.10;99.90;;;;;;6129125;23;20112;-86
2022/08/10 04:17:02;;;;;;;0.40;0.40;;;15.10;99.90;;;;;;6156871;23;20141;-85
2022/08/10 04:19:30;;;;;;;0.40;0.40;;;15.00;99.90;;;;;;6128208;23;20326;-86
2022/08/10 04:22:14;;;;;;;0.43;0.32;;;15.10;99.90;;;;;;6128135;23;20025;-87
2022/08/10 04:24:40;;;;;;;0.28;0.22;;;15.00;99.90;;;;;;6128655;23;20024;-92
2022/08/10 04:27:08;;;;;;;0.68;0.60;;;15.00;99.90;;;;;;6153810;23;20033;-86
2022/08/10 04:29:34;;;;;;;0.80;0.50;;;15.00;99.90;;;;;;6127908;23;20091;-90
2022/08/10 04:32:02;;;;;;;0.40;0.38;;;15.00;99.90;;;;;;6128179;23;20037;-86
2022/08/10 04:34:32;;;;;;;0.35;0.32;;;15.00;99.90;;;;;;6153490;23;20327;-91
2022/08/10 04:37:02;;;;;;;0.25;0.25;;;15.00;99.90;;;;;;6129480;23;20560;-86
2022/08/10 04:39:34;;;;;;;0.40;0.40;;;15.00;99.90;;;;;;6131170;23;20102;-92
2022/08/10 04:42:02;;;;;;;0.88;0.55;;;15.00;99.90;;;;;;6128504;23;20045;-87
2022/08/10 04:44:29;;;;;;;0.50;0.50;;;15.00;99.90;;;;;;6129189;23;20017;-93
2022/08/10 04:46:56;;;;;;;0.47;0.40;;;15.00;99.90;;;;;;6129041;23;20021;-88
2022/08/10 04:49:25;;;;;;;0.50;0.50;;;15.00;99.90;;;;;;6128134;23;20013;-91
2022/08/10 04:52:13;;;;;;;0.70;0.32;;;15.00;99.90;;;;;;6135585;23;20449;-90
2022/08/10 04:54:40;;;;;;;0.93;0.40;;;15.10;99.90;;;;;;6152841;23;20013;-94
2022/08/10 04:57:07;;;;;;;0.82;0.57;;;15.10;99.90;;;;;;6141475;23;20028;-89
2022/08/10 04:59:34;;;;;;;0.82;0.70;;;15.10;99.90;;;;;;6140379;23;20221;-88
2022/08/10 05:02:01;;;;;;;1.05;0.60;;;15.20;99.90;;;;;;6138012;23;20017;-86
2022/08/10 05:04:48;;;;;;;0.75;0.60;;;15.20;99.90;;;;;;6164124;23;20041;-85
2022/08/10 05:07:15;;;;;;;1.02;0.88;;;15.20;99.90;;;;;;6151422;23;20079;-89
2022/08/10 05:09:48;;;;;;;1.05;0.80;;;15.30;99.90;;;;;;6151415;23;20298;-92
2022/08/10 05:12:35;;;;;;;0.80;0.70;;;15.30;99.90;;;;;;6155225;23;20017;-91
2022/08/10 05:15:05;;;;;;;;;;;15.40;99.90;;;;;;6130681;23;20032;-88
2022/08/10 05:17:33;;;;;;;0.82;0.60;;;15.50;99.90;;;;;;6128666;23;19919;-88
2022/08/10 05:20:01;;;;;;;0.80;0.52;;;15.60;99.90;;;;;;6152529;23;20032;-89
2022/08/10 05:22:38;;;;;;;0.90;0.40;;;15.60;99.90;;;;;;6156381;23;20101;-88
2022/08/10 05:25:07;;;;;;;;;;;15.70;99.90;;;;;;6153718;23;20017;-90
2022/08/10 05:27:34;;;;;;;0.55;0.52;;;15.80;99.90;;;;;;6151352;23;20293;-93
2022/08/10 05:30:01;;;;;;;0.40;0.40;;;15.90;99.90;;;;;;6152158;23;20041;-93
2022/08/10 05:32:32;;;;;;;0.52;0.50;;;15.90;99.90;;;;;;6153764;23;20029;-92
2022/08/10 05:35:20;;;;;;;0.40;0.40;;;16.10;99.90;;;;;;6157314;23;20117;-86
2022/08/10 05:37:51;;;;;;;0.40;0.40;;;16.20;99.90;;;;;;6155453;23;20041;-85
2022/08/10 05:40:39;;;;;;;0.50;0.50;;;16.30;99.90;;;;;;6155412;23;20401;-90
2022/08/10 05:43:12;;;;;;;0.80;0.40;;;16.30;99.90;;;;;;6148152;23;20020;-90
2022/08/10 05:45:42;;;;;;;0.85;0.50;;;16.40;99.90;;;;;;6147704;23;20124;-86
2022/08/10 05:48:29;;;;;;;0.40;0.40;;;16.50;99.90;;;;;;6130745;23;20028;-88
2022/08/10 05:51:17;;;;;;;0.57;0.43;;;16.60;99.90;;;;;;6153596;23;20028;-87
2022/08/10 05:53:46;;;;;;;0.45;0.45;;;16.80;99.90;;;;;;6145633;23;20216;-87
2022/08/10 05:56:37;;;;;;;0.63;0.45;;;16.90;99.90;;;;;;6130180;23;20021;-85
2022/08/10 05:59:26;;;;;;;0.40;0.40;;;17.00;99.90;;;;;;6128772;23;20021;-89
2022/08/10 06:02:24;;;;;;;0.35;0.32;;;17.10;99.90;;;;;;6132727;23;20108;-85
2022/08/10 06:05:04;;;;;;;0.80;0.68;;;17.20;99.90;;;;;;6128438;23;20355;-85
2022/08/10 06:07:36;;;;;;;0.63;0.60;;;17.30;99.90;;;;;;6153146;23;20495;-85
2022/08/10 06:10:04;;;;;;;0.65;0.60;;;17.50;99.90;;;;;;6149816;23;20448;-86
2022/08/10 06:12:36;;;;;;;0.43;0.40;;;17.60;99.90;;;;;;6151173;23;20040;-84
2022/08/10 06:15:22;;;;;;;0.60;0.60;;;17.70;99.90;;;;;;6131270;23;20020;-89
2022/08/10 06:18:09;;;;;;;0.65;0.57;;;17.80;99.90;;;;;;6134441;23;20021;-86
2022/08/10 06:20:36;;;;;;;0.73;0.73;;;17.90;99.90;;;;;;6147551;23;20051;-89
2022/08/10 06:23:03;;;;;;;1.30;0.65;;;17.90;99.90;;;;;;6147379;23;20088;-85
2022/08/10 06:25:31;;;;;;;0.88;0.60;;;18.00;99.90;;;;;;6147336;23;20027;-86
2022/08/10 06:28:18;;;;;;;0.50;0.50;;;18.10;99.90;;;;;;6153776;23;20025;-85
2022/08/10 06:30:44;;;;;;;0.50;0.50;;;18.20;99.90;;;;;;6154290;23;20140;-85
2022/08/10 06:33:11;;;;;;;1.33;0.70;;;18.30;99.90;;;;;;6158546;23;20075;-85
2022/08/10 06:35:40;;;;;;;2.28;0.90;;;18.40;99.90;;;;;;6161037;23;20193;-87
2022/08/10 06:38:11;;;;;;;1.02;0.70;;;18.30;99.90;;;;;;6168243;23;20307;-87
2022/08/10 06:40:40;;;;;;;1.23;0.73;;;18.30;99.90;;;;;;6141923;23;20337;-85
2022/08/10 06:43:09;;;;;;;1.45;1.00;;;18.30;99.90;;;;;;6164420;23;20021;-87
2022/08/10 06:45:44;;;;;;;1.10;0.80;;;18.30;99.90;;;;;;6166139;23;20069;-86
2022/08/10 06:48:36;;;;;;;0.80;0.60;;;18.30;99.90;;;;;;6173993;23;20024;-86
2022/08/10 06:51:11;;;;;;;1.40;0.63;;;18.40;99.90;;;;;;6142994;23;20435;-86
2022/08/10 06:53:48;;;;;;;0.75;0.60;;;18.40;99.90;;;;;;6166829;23;20014;-86
2022/08/10 06:56:30;;;;;;;0.65;0.65;;;18.50;99.90;;;;;;6169474;23;20036;-86
2022/08/10 06:59:08;;;;;;;0.82;0.73;;;18.60;99.90;;;;;;6146669;23;20041;-89
2022/08/10 07:01:50;;;;;;;0.63;0.57;;;18.80;99.90;;;;;;6160827;23;20108;-89
2022/08/10 07:04:27;;;;;;;1.00;0.68;;;19.00;99.90;;;;;;6129298;23;20470;-87
2022/08/10 07:07:01;;;;;;;0.50;0.43;;;19.20;99.90;;;;;;6127330;23;20108;-87
2022/08/10 07:09:28;;;;;;;0.80;0.57;;;19.30;99.90;;;;;;6125321;23;20116;-87
2022/08/10 07:11:55;;;;;;;1.33;0.65;;;19.50;99.90;;;;;;6126558;23;20040;-87
2022/08/10 07:14:35;;;;;;;1.10;0.60;;;19.70;99.90;;;;;;6131713;23;20032;-87
2022/08/10 07:17:03;;;;;;;1.52;0.68;;;19.80;99.90;;;;;;6132205;23;20025;-88
2022/08/10 07:19:30;;;;;;;0.50;0.50;;;19.80;99.90;;;;;;6155813;23;20024;-87
2022/08/10 07:21:57;;;;;;;0.60;0.52;;;19.80;99.90;;;;;;6163657;23;20032;-87
2022/08/10 07:24:25;;;;;;;0.75;0.70;;;19.90;99.90;;;;;;6135162;23;20068;-88
2022/08/10 07:26:53;;;;;;;0.77;0.55;;;19.90;99.90;;;;;;6132538;23;20315;-88
2022/08/10 07:29:20;;;;;;;1.48;0.80;;;19.90;99.90;;;;;;6130702;23;20452;-87
2022/08/10 07:32:07;;;;;;;0.63;0.57;;;19.80;99.90;;;;;;6136342;23;20067;-91
2022/08/10 07:34:35;;;;;;;0.70;0.52;;;19.80;99.90;;;;;;6127308;23;20043;-86
2022/08/10 07:37:03;;;;;;;1.90;0.88;;;19.70;99.90;;;;;;6128470;23;20100;-89
2022/08/10 07:39:32;;;;;;;0.70;0.60;;;19.80;99.90;;;;;;6154087;23;20025;-89
2022/08/10 07:42:21;;;;;;;0.70;0.60;;;19.80;99.90;;;;;;6137718;23;20024;-86
2022/08/10 07:44:49;;;;;;;0.73;0.73;;;19.70;99.90;;;;;;6127332;23;20431;-90
2022/08/10 07:47:27;;;;;;;1.08;0.77;;;19.80;99.90;;;;;;6155641;23;20108;-87
2022/08/10 07:50:16;;;;;;;0.63;0.47;;;19.80;99.90;;;;;;6140868;23;20182;-86
2022/08/10 07:52:43;;;;;;;0.50;0.43;;;20.00;99.90;;;;;;6129297;23;20052;-86
2022/08/10 07:55:13;;;;;;;0.60;0.57;;;20.00;99.90;;;;;;6131038;23;20017;-87
2022/08/10 07:57:42;;;;;;;0.60;0.40;;;20.10;99.90;;;;;;6136406;23;20033;-85
2022/08/10 08:00:10;;;;;;;0.38;0.38;;;20.20;99.90;;;;;;6134480;23;20025;-86
2022/08/10 08:02:56;;;;;;;0.47;0.47;;;20.30;99.90;;;;;;6158423;23;20025;-89
2022/08/10 08:05:24;;;;;;;0.52;0.40;;;20.40;99.90;;;;;;6161688;23;20021;-88
2022/08/10 08:08:12;;;;;;;0.50;0.43;;;20.40;99.90;;;;;;6166701;23;20025;-90
2022/08/10 08:10:39;;;;;;;0.55;0.30;;;20.50;99.90;;;;;;6162952;23;20080;-88
2022/08/10 08:13:06;;;;;;;0.60;0.50;;;20.60;99.90;;;;;;6141096;23;20095;-87
2022/08/10 08:15:33;;;;;;;0.50;0.40;;;20.60;99.90;;;;;;6132579;23;20020;-88
2022/08/10 08:18:20;;;;;;;0.63;0.57;;;20.70;99.90;;;;;;6137994;23;20076;-86
2022/08/10 08:20:51;;;;;;;0.63;0.50;;;20.70;99.90;;;;;;6151632;23;20212;-88
2022/08/10 08:23:20;;;;;;;1.38;0.80;;;20.80;99.90;;;;;;6125838;23;20021;-87
2022/08/10 08:26:07;;;;;;;1.02;0.70;;;20.80;99.90;;;;;;6133121;23;20033;-87
2022/08/10 08:28:34;;;;;;;0.80;0.52;;;20.80;99.90;;;;;;6123507;23;20020;-87
2022/08/10 08:31:02;;;;;;;0.38;0.35;;;20.90;99.90;;;;;;6123926;23;20528;-87
2022/08/10 08:33:29;;;;;;;0.82;0.60;;;21.00;99.90;;;;;;6123928;23;20115;-88
2022/08/10 08:36:10;;;;;;;0.60;0.45;;;21.10;99.90;;;;;;6149265;23;20081;-85
2022/08/10 08:38:37;;;;;;;0.43;0.40;;;21.10;99.90;;;;;;6123270;23;20241;-90
2022/08/10 08:41:32;;;;;;;0.43;0.40;;;21.20;99.90;;;;;;6124069;23;20024;-89
2022/08/10 08:44:27;;;;;;;0.80;0.50;;;21.30;99.90;;;;;;6147949;23;20028;-91
2022/08/10 08:47:24;;;;;;;0.50;0.43;;;21.40;99.90;;;;;;6130401;23;20044;-91
2022/08/10 08:50:32;;;;;;;0.32;0.30;;;21.50;99.90;;;;;;6152513;23;20175;-86
2022/08/10 08:53:14;;;;;;;0.38;0.35;;;21.60;99.90;;;;;;6126601;23;20244;-89
2022/08/10 08:56:29;;;;;;;1.00;0.57;;;21.70;99.90;;;;;;6126892;23;20075;-88
2022/08/10 08:59:16;;;;;;;1.20;0.50;;;21.80;99.90;;;;;;6082490;23;20124;-92
2022/08/10 09:01:52;;;;;;;1.10;0.57;;;21.90;99.90;;;;;;6086778;23;20034;-88
2022/08/10 09:04:47;;;;;;;0.40;0.30;;;22.00;99.90;;;;;;6139141;23;20795;-89
2022/08/10 09:07:35;;;;;;;0.70;0.70;;;22.20;99.90;;;;;;6151887;23;20017;-88
2022/08/10 09:10:29;;;;;;;0.50;0.47;;;22.30;99.90;;;;;;6153695;23;20058;-89
2022/08/10 09:13:15;;;;;;;0.55;0.45;;;22.30;99.90;;;;;;6150359;23;20017;-88
2022/08/10 09:16:04;;;;;;;1.25;0.80;;;22.40;99.90;;;;;;6149380;23;20092;-88
2022/08/10 09:18:45;;;;;;;0.50;0.47;;;22.50;99.90;;;;;;6149639;23;20024;-87
2022/08/10 09:21:18;;;;;;;0.32;0.30;;;22.60;99.90;;;;;;6129592;23;20017;-89
2022/08/10 09:23:57;;;;;;;0.82;0.50;;;22.70;99.90;;;;;;6127108;23;20071;-87
2022/08/10 09:26:34;;;;;;;0.55;0.52;;;22.80;99.90;;;;;;6134839;23;20108;-88
2022/08/10 09:29:02;;;;;;;0.73;0.40;;;22.90;99.90;;;;;;6133217;23;20529;-89
2022/08/10 09:31:54;;;;;;;0.65;0.40;;;22.90;99.90;;;;;;6134673;23;20085;-88
2022/08/10 09:35:01;;;;;;;1.73;0.63;;;23.10;99.90;;;;;;6139546;23;20067;-88
2022/08/10 09:38:16;;;;;;;0.75;0.40;;;23.20;99.90;;;;;;6153931;23;20455;-89
2022/08/10 09:40:58;;;;;;;0.90;0.45;;;23.30;99.90;;;;;;6154890;23;20021;-89
2022/08/10 09:43:41;;;;;;;0.52;0.40;;;23.40;99.90;;;;;;6129190;23;20128;-89
2022/08/10 09:46:35;;;;;;;0.40;0.32;;;23.50;99.90;;;;;;6128467;23;20116;-88
2022/08/10 09:49:11;;;;;;;0.38;0.30;;;23.70;99.90;;;;;;6152309;23;20032;-89
2022/08/10 09:52:00;;;;;;;0.52;0.30;;;23.80;99.90;;;;;;6130576;23;20073;-88
2022/08/10 09:54:58;;;;;;;0.82;0.60;;;23.90;99.90;;;;;;6128931;23;20023;-89
2022/08/10 09:57:50;;;;;;;0.65;0.30;;;24.00;99.90;;;;;;6100346;23;20529;-89
2022/08/10 10:00:25;;;;;;;0.38;0.35;;;24.10;99.90;;;;;;6155815;23;20071;-89
2022/08/10 10:03:23;;;;;;;0.85;0.40;;;24.20;99.90;;;;;;6130181;23;20110;-89
2022/08/10 10:06:18;;;;;;;0.43;0.43;;;24.30;99.90;;;;;;6131880;23;20051;-88
2022/08/10 10:09:06;;;;;;;;;;;24.40;99.90;;;;;;6158247;23;20017;-88
2022/08/10 10:12:06;;;;;;;0.50;0.40;;;24.40;99.90;;;;;;6156052;23;19940;-88
2022/08/10 10:18:21;;;;;;;0.40;0.40;;;24.60;99.90;;;;;;6178003;23;20017;-88
2022/08/10 10:20:48;;;;;;;0.50;0.40;;;24.70;99.90;;;;;;6158504;23;20029;-89
2022/08/10 10:23:50;;;;;;;0.30;0.28;;;24.80;99.90;;;;;;6156175;23;20024;-90
2022/08/10 10:26:56;;;;;;;0.57;0.38;;;24.90;99.40;;;;;;6132352;23;20037;-92
2022/08/10 10:29:37;;;;;;;0.90;0.40;;;25.00;98.40;;;;;;6155307;23;20025;-89
2022/08/10 10:32:45;;;;;;;0.95;0.32;;;25.00;97.60;;;;;;6141563;23;20341;-90
2022/08/10 10:35:23;;;;;;;0.60;0.40;;;25.10;96.90;;;;;;6154103;23;20028;-90
2022/08/10 10:37:51;;;;;;;0.68;0.40;;;25.20;96.30;;;;;;6129007;23;20087;-91
2022/08/10 10:40:36;;;;;;;0.80;0.50;;;25.30;96.40;;;;;;6133770;23;20135;-91
2022/08/10 10:43:27;;;;;;;0.30;0.30;;;25.40;96.50;;;;;;6130632;23;20021;-91
2022/08/10 10:46:12;;;;;;;0.43;0.43;;;25.50;97.00;;;;;;6135789;23;20119;-91
2022/08/10 10:48:42;;;;;;;1.42;0.65;;;25.60;95.50;;;;;;6159807;23;20172;-89
2022/08/10 10:51:33;;;;;;;;;;;25.60;95.10;;;;;;6155418;23;20084;-91
2022/08/10 10:54:13;;;;;;;1.00;0.45;;;25.60;95.50;;;;;;6127790;23;19979;-92
2022/08/10 10:57:08;;;;;;;0.30;0.30;;;25.70;96.10;;;;;;6152049;23;20026;-92
2022/08/10 10:59:58;;;;;;;1.05;0.30;;;25.80;95.20;;;;;;6126813;23;20022;-90
2022/08/10 11:02:37;;;;;;;0.43;0.40;;;25.90;94.70;;;;;;6104437;23;20025;-90
2022/08/10 11:05:16;;;;;;;0.50;0.30;;;26.00;94.60;;;;;;6125267;23;20048;-90
2022/08/10 11:08:08;;;;;;;0.35;0.22;;;26.00;94.80;;;;;;6150599;23;20029;-91
2022/08/10 11:10:48;;;;;;;0.28;0.20;;;26.10;94.60;;;;;;6152417;23;20024;-91
2022/08/10 11:13:33;;;;;;;0.28;0.20;;;26.30;94.60;;;;;;6126851;23;20079;-89
2022/08/10 11:16:36;;;;;;;1.25;0.35;;;26.30;94.30;;;;;;6129329;23;20112;-89
2022/08/10 11:19:29;;;;;;;0.30;0.20;;;26.40;93.00;;;;;;6101883;23;20021;-89
2022/08/10 11:22:33;;;;;;;0.32;0.30;;;26.60;93.40;;;;;;6129838;23;20030;-89
2022/08/10 11:25:08;;;;;;;0.20;0.20;;;26.70;92.90;;;;;;6102829;23;20101;-88
2022/08/10 11:27:47;;;;;;;0.30;0.30;;;26.90;92.40;;;;;;6148193;23;20109;-89
2022/08/10 11:30:20;;;;;;;0.20;0.20;;;27.00;92.10;;;;;;6150268;23;20032;-89
2022/08/10 11:32:55;;;;;;;0.32;0.32;;;27.20;91.40;;;;;;6101750;23;20096;-89
2022/08/10 11:35:46;;;;;;;0.20;0.20;;;27.40;90.40;;;;;;6150144;23;20025;-89
2022/08/10 11:38:20;;;;;;;0.27;0.27;;;27.50;90.60;;;;;;6125399;23;20460;-89
2022/08/10 11:41:24;;;;;;;0.20;0.20;;;27.80;90.10;;;;;;6148946;23;20032;-90
2022/08/10 11:44:28;;;;;;;0.38;0.22;;;28.20;88.10;;;;;;6146337;23;20248;-89
2022/08/10 11:47:03;;;;;;;0.55;0.40;;;28.50;85.70;;;;;;6102464;23;20447;-90
2022/08/10 11:49:52;;;;;;;0.35;0.22;;;28.60;85.10;;;;;;6150660;23;20037;-90
2022/08/10 11:52:38;;;;;;;1.10;0.60;;;28.80;85.20;;;;;;6124733;23;20032;-89
2022/08/10 11:55:11;;;;;;;0.75;0.68;;;28.80;84.70;;;;;;6150814;23;20074;-90
2022/08/10 11:57:41;;;;;;;0.50;0.50;;;28.90;82.80;;;;;;6104172;23;20024;-90
2022/08/10 12:00:21;;;;;;;0.50;0.50;;;29.10;79.80;;;;;;6105669;23;20052;-87
2022/08/10 12:02:57;;;;;;;0.88;0.60;;;29.20;78.30;;;;;;6102136;23;20013;-91
2022/08/10 12:05:38;;;;;;;0.50;0.50;;;29.50;77.80;;;;;;6101253;23;20045;-90
2022/08/10 12:08:21;;;;;;;0.73;0.73;;;29.30;76.40;;;;;;6109855;23;20112;-90
2022/08/10 12:11:11;;;;;;;0.43;0.40;;;29.70;76.80;;;;;;6130232;23;20025;-90
2022/08/10 12:13:58;;;;;;;0.40;0.40;;;30.10;75.60;;;;;;6128692;23;20571;-91
2022/08/10 12:16:47;;;;;;;0.77;0.70;;;30.20;74.20;;;;;;6151145;23;20172;-89
2022/08/10 12:19:33;;;;;;;0.70;0.70;;;30.20;74.40;;;;;;6100826;23;20018;-89
2022/08/10 12:22:26;;;;;;;0.60;0.60;;;30.10;74.30;;;;;;6130739;23;20033;-89
2022/08/10 12:25:02;;;;;;;0.50;0.50;;;30.70;73.70;;;;;;6098589;23;20519;-91
2022/08/10 12:27:53;;;;;;;0.43;0.40;;;31.00;71.80;;;;;;6100480;23;20020;-89
2022/08/10 12:30:31;;;;;;;0.55;0.43;;;31.20;71.40;;;;;;6114242;23;20044;-90
2022/08/10 12:33:03;;;;;;;0.30;0.30;;;31.20;72.20;;;;;;6115201;23;20052;-91
2022/08/10 12:35:56;;;;;;;0.57;0.52;;;31.40;71.20;;;;;;6108587;23;20101;-90
2022/08/10 12:39:05;;;;;;;0.30;0.30;;;31.70;69.70;;;;;;6132529;23;20352;-92
2022/08/10 12:42:17;;;;;;;0.35;0.32;;;31.90;69.10;;;;;;6126811;23;20360;-91
2022/08/10 12:45:10;;;;;;;0.70;0.65;;;32.00;68.20;;;;;;6059658;23;20031;-89
2022/08/10 12:47:51;;;;;;;0.63;0.50;;;32.10;67.10;;;;;;6126204;23;20125;-90
2022/08/10 12:50:20;;;;;;;0.80;0.50;;;32.30;66.10;;;;;;6097371;23;20026;-91
2022/08/10 12:53:02;;;;;;;0.50;0.50;;;32.30;66.10;;;;;;6120098;23;20076;-90
2022/08/10 12:55:33;;;;;;;0.85;0.60;;;32.70;65.80;;;;;;6117926;23;20033;-90
2022/08/10 12:58:00;;;;;;;0.60;0.60;;;32.80;65.20;;;;;;6118129;23;20543;-90
2022/08/10 13:00:33;;;;;;;0.65;0.55;;;32.70;64.40;;;;;;6118449;23;20435;-92
2022/08/10 13:03:00;;;;;;;1.05;0.57;;;32.80;64.00;;;;;;6115870;23;20176;-90
2022/08/10 13:05:28;;;;;;;0.50;0.50;;;32.90;64.60;;;;;;6119410;23;20097;-91
2022/08/10 13:11:03;;;;;;;0.75;0.70;;;33.30;63.90;;;;;;6117405;23;20018;-90
2022/08/10 13:13:32;;;;;;;0.38;0.38;;;33.30;62.60;;;;;;6116173;23;20045;-90
2022/08/10 13:15:59;;;;;;;0.43;0.38;;;33.40;61.90;;;;;;6118354;23;20022;-91
2022/08/10 13:18:37;;;;;;;0.32;0.30;;;33.60;61.70;;;;;;6119081;23;20076;-91
2022/08/10 13:21:07;;;;;;;0.30;0.30;;;34.00;62.10;;;;;;6117852;23;20085;-91
2022/08/10 13:23:56;;;;;;;0.30;0.30;;;34.10;61.50;;;;;;6115057;23;20077;-93
2022/08/10 13:26:32;;;;;;;0.60;0.47;;;34.20;61.00;;;;;;6117185;23;20022;-91
2022/08/10 13:29:02;;;;;;;;;;;34.20;60.00;;;;;;6117793;23;20056;-91
2022/08/10 13:31:41;;;;;;;0.55;0.38;;;34.50;60.60;;;;;;6095576;23;19917;-92
2022/08/10 13:34:29;;;;;;;0.28;0.22;;;34.80;59.60;;;;;;6120382;23;20096;-93
2022/08/10 13:37:12;;;;;;;0.70;0.40;;;34.80;59.70;;;;;;6123194;23;20084;-94
2022/08/10 13:39:43;;;;;;;0.38;0.20;;;34.90;59.70;;;;;;6121101;23;20014;-92
2022/08/10 13:42:44;;;;;;;0.22;0.20;;;35.00;59.20;;;;;;6119716;23;20025;-90
2022/08/10 13:45:14;;;;;;;0.50;0.40;;;35.30;58.70;;;;;;6115787;23;20025;-91
2022/08/10 13:47:42;;;;;;;1.00;0.50;;;35.30;58.40;;;;;;6115681;23;20100;-92
2022/08/10 13:50:21;;;;;;;0.70;0.70;;;35.30;58.90;;;;;;6130679;23;20280;-91
2022/08/10 13:53:00;;;;;;;1.30;0.50;;;35.70;57.90;;;;;;6156015;23;20025;-91
2022/08/10 13:55:28;;;;;;;1.15;0.40;;;35.80;57.90;;;;;;6128178;23;20025;-91
2022/08/10 13:58:15;;;;;;;0.38;0.30;;;36.00;57.90;;;;;;6136657;23;20025;-90
2022/08/10 14:00:42;;;;;;;0.38;0.38;;;36.00;57.70;;;;;;6127011;23;20021;-92
2022/08/10 14:03:13;;;;;;;0.40;0.40;;;36.20;57.70;;;;;;6154409;23;20017;-91
2022/08/10 14:05:59;;;;;;;0.30;0.30;;;36.00;57.80;;;;;;6127835;23;20539;-91
2022/08/10 14:08:28;;;;;;;0.20;0.20;;;36.10;57.50;;;;;;6127697;23;20083;-90